Pagrindinis puslapis
METAR-TAF:

METAR-TAF

Oro uostai :

Tirana, Albanija

platuma: 41-20N, ilguma: 019-47E, Aukštis: 89 m

Dabartinis oras

Ataskaita buvo paskelbta 33 minutes, ne 10:50 UTC
Vėjas 4 kt iš Šiaurės/Šiaurės Rytų
Temperatūra 25°C
Drėgmė 30%
Slėgis 1022 hPa
Matomumas 10 km arba daugiau
nėra debesų žemiau 1500 m ir nėra kamuolinių lietaus debesų

METAR: LATI 211050Z 03004KT CAVOK 25/06 Q1022 NOSIG

Laikas: 13:23 (11:23 UTC)

Prognozė

Ataskaita buvo paskelbta 6 valandos ir 23 minutes, ne 05:00 UTC
Prognozė galioja nuo 21 metu 06 UTC su 22 metu 06 UTC
Vėjas 4 kt nuo kintamojo kryptimis
Matomumas 10 km arba daugiau
nėra debesų žemiau 1500 m ir nėra kamuolinių lietaus debesų
Laikinai
nuo 21 metu 10 UTC su 21 metu 17 UTC
Vėjas 12 kt iš Šiaurės/Šiaurės Vakarų

TAF: LATI 210500Z 2106/2206 VRB04KT CAVOK TEMPO 2110/2117 34012KT

Orai ataskaitas ir orų prognozės (METAR, TAF).

turimą stotys yra geltonos ir raudonos taškus žemėlapyje.

Perkelti pele per norėdami pamatyti stoties vardą.

Tada spustelėkite, norėdami matyti oro stebėjimo ir prognozės.

Norėdami pakeisti žemėlapį: spustelėkite ant žalios mygtukų su juodo kryžiaus žemyn,; žalią mygtuką su brūkšneliu, jei norite nutolinti; arba žalių rodyklių gretimoms žemėlapius.


METAR-TAF: